sensor_id;sensor_type;location;lat;lon;timestamp;pressure;altitude;pressure_sealevel;temperature;humidity
80405;BME280;69733;48.744;9.176;2023-12-04T00:02:01;96957.19;;;-6.89;100.00
80405;BME280;69733;48.744;9.176;2023-12-04T00:04:26;96958.25;;;-6.91;100.00
80405;BME280;69733;48.744;9.176;2023-12-04T00:06:51;96953.19;;;-6.93;100.00
80405;BME280;69733;48.744;9.176;2023-12-04T00:09:17;96953.19;;;-6.93;100.00
80405;BME280;69733;48.744;9.176;2023-12-04T00:11:42;96940.50;;;-6.96;100.00
80405;BME280;69733;48.744;9.176;2023-12-04T00:14:07;96942.16;;;-6.95;100.00
80405;BME280;69733;48.744;9.176;2023-12-04T00:16:34;96939.66;;;-6.96;100.00
80405;BME280;69733;48.744;9.176;2023-12-04T00:19:00;96935.56;;;-6.99;100.00
80405;BME280;69733;48.744;9.176;2023-12-04T00:21:26;96931.22;;;-6.98;100.00
80405;BME280;69733;48.744;9.176;2023-12-04T00:23:51;96921.81;;;-6.99;100.00
80405;BME280;69733;48.744;9.176;2023-12-04T00:26:16;96923.56;;;-7.00;100.00
80405;BME280;69733;48.744;9.176;2023-12-04T00:28:42;96917.47;;;-6.99;100.00
80405;BME280;69733;48.744;9.176;2023-12-04T00:31:08;96912.53;;;-7.02;100.00
80405;BME280;69733;48.744;9.176;2023-12-04T00:33:33;96904.06;;;-7.04;100.00
80405;BME280;69733;48.744;9.176;2023-12-04T00:35:59;96896.44;;;-7.06;100.00
80405;BME280;69733;48.744;9.176;2023-12-04T00:38:24;96898.19;;;-7.06;100.00
80405;BME280;69733;48.744;9.176;2023-12-04T00:40:49;96889.72;;;-7.08;100.00
80405;BME280;69733;48.744;9.176;2023-12-04T00:43:14;96889.97;;;-7.11;100.00
80405;BME280;69733;48.744;9.176;2023-12-04T00:45:40;96899.47;;;-7.12;100.00
80405;BME280;69733;48.744;9.176;2023-12-04T00:48:05;96891.84;;;-7.13;100.00
80405;BME280;69733;48.744;9.176;2023-12-04T00:50:30;96890.19;;;-7.14;100.00
80405;BME280;69733;48.744;9.176;2023-12-04T00:52:56;96879.16;;;-7.16;100.00
80405;BME280;69733;48.744;9.176;2023-12-04T00:55:21;96892.19;;;-7.18;100.00
80405;BME280;69733;48.744;9.176;2023-12-04T00:57:46;96884.44;;;-7.18;100.00
80405;BME280;69733;48.744;9.176;2023-12-04T01:00:12;96884.56;;;-7.19;100.00
80405;BME280;69733;48.744;9.176;2023-12-04T01:02:38;96881.16;;;-7.20;100.00
80405;BME280;69733;48.744;9.176;2023-12-04T01:05:03;96889.03;;;-7.21;100.00
80405;BME280;69733;48.744;9.176;2023-12-04T01:07:29;96877.84;;;-7.22;100.00
80405;BME280;69733;48.744;9.176;2023-12-04T01:09:54;96883.16;;;-7.23;100.00
80405;BME280;69733;48.744;9.176;2023-12-04T01:12:19;96881.41;;;-7.23;100.00
80405;BME280;69733;48.744;9.176;2023-12-04T01:14:46;96877.03;;;-7.22;100.00
80405;BME280;69733;48.744;9.176;2023-12-04T01:17:14;96873.75;;;-7.24;100.00
80405;BME280;69733;48.744;9.176;2023-12-04T01:19:42;96863.41;;;-7.24;100.00
80405;BME280;69733;48.744;9.176;2023-12-04T01:22:07;96864.34;;;-7.25;100.00
80405;BME280;69733;48.744;9.176;2023-12-04T01:24:33;96864.25;;;-7.24;100.00
80405;BME280;69733;48.744;9.176;2023-12-04T01:26:58;96871.06;;;-7.23;100.00
80405;BME280;69733;48.744;9.176;2023-12-04T01:29:24;96864.25;;;-7.24;100.00
80405;BME280;69733;48.744;9.176;2023-12-04T01:31:49;96856.34;;;-7.22;100.00
80405;BME280;69733;48.744;9.176;2023-12-04T01:34:14;96856.25;;;-7.21;100.00
80405;BME280;69733;48.744;9.176;2023-12-04T01:36:40;96851.78;;;-7.19;100.00
80405;BME280;69733;48.744;9.176;2023-12-04T01:39:06;96853.56;;;-7.19;100.00
80405;BME280;69733;48.744;9.176;2023-12-04T01:41:32;96856.84;;;-7.17;100.00
80405;BME280;69733;48.744;9.176;2023-12-04T01:43:57;96843.00;;;-7.16;100.00
80405;BME280;69733;48.744;9.176;2023-12-04T01:46:22;96836.84;;;-7.15;100.00
80405;BME280;69733;48.744;9.176;2023-12-04T01:48:48;96839.22;;;-7.12;100.00
80405;BME280;69733;48.744;9.176;2023-12-04T01:51:14;96839.91;;;-7.10;100.00
80405;BME280;69733;48.744;9.176;2023-12-04T01:53:42;96838.97;;;-7.09;100.00
80405;BME280;69733;48.744;9.176;2023-12-04T01:56:09;96837.22;;;-7.09;100.00
80405;BME280;69733;48.744;9.176;2023-12-04T01:58:34;96833.69;;;-7.08;100.00
80405;BME280;69733;48.744;9.176;2023-12-04T02:01:00;96833.44;;;-7.05;100.00
80405;BME280;69733;48.744;9.176;2023-12-04T02:03:29;96823.91;;;-7.04;100.00
80405;BME280;69733;48.744;9.176;2023-12-04T02:05:54;96832.25;;;-7.00;100.00
80405;BME280;69733;48.744;9.176;2023-12-04T02:08:23;96834.75;;;-6.99;100.00
80405;BME280;69733;48.744;9.176;2023-12-04T02:10:49;96828.50;;;-6.96;100.00
80405;BME280;69733;48.744;9.176;2023-12-04T02:13:14;96830.00;;;-6.94;100.00
80405;BME280;69733;48.744;9.176;2023-12-04T02:15:40;96828.25;;;-6.93;100.00
80405;BME280;69733;48.744;9.176;2023-12-04T02:18:05;96826.50;;;-6.93;100.00
80405;BME280;69733;48.744;9.176;2023-12-04T02:20:32;96821.47;;;-6.94;100.00
80405;BME280;69733;48.744;9.176;2023-12-04T02:22:58;96817.09;;;-6.94;100.00
80405;BME280;69733;48.744;9.176;2023-12-04T02:25:24;96806.06;;;-6.96;100.00
80405;BME280;69733;48.744;9.176;2023-12-04T02:27:50;96809.56;;;-6.97;100.00
80405;BME280;69733;48.744;9.176;2023-12-04T02:30:22;96803.00;;;-7.01;100.00
80405;BME280;69733;48.744;9.176;2023-12-04T02:32:48;96799.72;;;-7.03;100.00
80405;BME280;69733;48.744;9.176;2023-12-04T02:35:21;96808.41;;;-7.04;100.00
80405;BME280;69733;48.744;9.176;2023-12-04T02:37:47;96811.97;;;-7.05;100.00
80405;BME280;69733;48.744;9.176;2023-12-04T02:40:14;96811.13;;;-7.06;100.00
80405;BME280;69733;48.744;9.176;2023-12-04T02:42:39;96816.31;;;-7.06;100.00
80405;BME280;69733;48.744;9.176;2023-12-04T02:45:05;96814.75;;;-7.08;100.00
80405;BME280;69733;48.744;9.176;2023-12-04T02:47:31;96817.47;;;-7.10;100.00
80405;BME280;69733;48.744;9.176;2023-12-04T02:49:56;96805.50;;;-7.11;100.00
80405;BME280;69733;48.744;9.176;2023-12-04T02:52:21;96802.06;;;-7.11;100.00
80405;BME280;69733;48.744;9.176;2023-12-04T02:54:47;96797.75;;;-7.11;100.00
80405;BME280;69733;48.744;9.176;2023-12-04T02:57:12;96784.81;;;-7.11;100.00
80405;BME280;69733;48.744;9.176;2023-12-04T02:59:37;96779.53;;;-7.09;100.00
80405;BME280;69733;48.744;9.176;2023-12-04T03:02:03;96771.06;;;-7.11;100.00
80405;BME280;69733;48.744;9.176;2023-12-04T03:04:28;96767.53;;;-7.10;100.00
80405;BME280;69733;48.744;9.176;2023-12-04T03:06:54;96758.13;;;-7.11;100.00
80405;BME280;69733;48.744;9.176;2023-12-04T03:09:20;96755.56;;;-7.11;100.00
80405;BME280;69733;48.744;9.176;2023-12-04T03:11:45;96746.97;;;-7.12;100.00
80405;BME280;69733;48.744;9.176;2023-12-04T03:14:10;96750.38;;;-7.11;100.00
80405;BME280;69733;48.744;9.176;2023-12-04T03:16:36;96750.28;;;-7.10;100.00
80405;BME280;69733;48.744;9.176;2023-12-04T03:19:01;96745.22;;;-7.11;100.00
80405;BME280;69733;48.744;9.176;2023-12-04T03:21:26;96733.00;;;-7.09;100.00
80405;BME280;69733;48.744;9.176;2023-12-04T03:23:54;96725.94;;;-7.07;100.00
80405;BME280;69733;48.744;9.176;2023-12-04T03:26:19;96726.75;;;-7.07;100.00
80405;BME280;69733;48.744;9.176;2023-12-04T03:28:47;96722.41;;;-7.06;100.00
80405;BME280;69733;48.744;9.176;2023-12-04T03:31:12;96710.19;;;-7.04;100.00
80405;BME280;69733;48.744;9.176;2023-12-04T03:33:38;96718.75;;;-7.03;100.00
80405;BME280;69733;48.744;9.176;2023-12-04T03:36:03;96714.41;;;-7.03;100.00
80405;BME280;69733;48.744;9.176;2023-12-04T03:38:29;96715.09;;;-7.01;100.00
80405;BME280;69733;48.744;9.176;2023-12-04T03:40:54;96707.34;;;-7.01;100.00
80405;BME280;69733;48.744;9.176;2023-12-04T03:43:20;96690.91;;;-7.00;100.00
80405;BME280;69733;48.744;9.176;2023-12-04T03:45:45;96689.97;;;-6.99;100.00
80405;BME280;69733;48.744;9.176;2023-12-04T03:48:10;96681.28;;;-6.98;100.00
80405;BME280;69733;48.744;9.176;2023-12-04T03:50:36;96681.28;;;-6.98;100.00
80405;BME280;69733;48.744;9.176;2023-12-04T03:53:01;96677.88;;;-6.98;100.00
80405;BME280;69733;48.744;9.176;2023-12-04T03:55:27;96679.38;;;-6.96;100.00
80405;BME280;69733;48.744;9.176;2023-12-04T03:57:53;96681.72;;;-6.93;100.00
80405;BME280;69733;48.744;9.176;2023-12-04T04:00:19;96683.34;;;-6.92;100.00
80405;BME280;69733;48.744;9.176;2023-12-04T04:02:45;96685.69;;;-6.89;100.00
80405;BME280;69733;48.744;9.176;2023-12-04T04:05:10;96683.94;;;-6.88;100.00
80405;BME280;69733;48.744;9.176;2023-12-04T04:07:36;96691.44;;;-6.85;100.00
80405;BME280;69733;48.744;9.176;2023-12-04T04:10:01;96681.91;;;-6.85;100.00
80405;BME280;69733;48.744;9.176;2023-12-04T04:12:29;96686.00;;;-6.82;100.00
80405;BME280;69733;48.744;9.176;2023-12-04T04:14:55;96681.41;;;-6.79;100.00
80405;BME280;69733;48.744;9.176;2023-12-04T04:17:20;96688.09;;;-6.76;100.00
80405;BME280;69733;48.744;9.176;2023-12-04T04:19:45;96678.31;;;-6.73;100.00
80405;BME280;69733;48.744;9.176;2023-12-04T04:22:11;96680.69;;;-6.70;100.00
80405;BME280;69733;48.744;9.176;2023-12-04T04:24:36;96672.66;;;-6.67;100.00
80405;BME280;69733;48.744;9.176;2023-12-04T04:27:01;96669.00;;;-6.64;100.00
80405;BME280;69733;48.744;9.176;2023-12-04T04:29:27;96677.44;;;-6.62;100.00
80405;BME280;69733;48.744;9.176;2023-12-04T04:31:52;96679.22;;;-6.63;100.00
80405;BME280;69733;48.744;9.176;2023-12-04T04:34:19;96684.81;;;-6.58;100.00
80405;BME280;69733;48.744;9.176;2023-12-04T04:36:45;96679.66;;;-6.58;100.00
80405;BME280;69733;48.744;9.176;2023-12-04T04:39:12;96681.97;;;-6.55;100.00
80405;BME280;69733;48.744;9.176;2023-12-04T04:41:38;96677.63;;;-6.54;100.00
80405;BME280;69733;48.744;9.176;2023-12-04T04:44:03;96676.81;;;-6.55;100.00
80405;BME280;69733;48.744;9.176;2023-12-04T04:46:28;96676.56;;;-6.51;100.00
80405;BME280;69733;48.744;9.176;2023-12-04T04:48:54;96684.31;;;-6.51;100.00
80405;BME280;69733;48.744;9.176;2023-12-04T04:51:19;96678.19;;;-6.50;100.00
80405;BME280;69733;48.744;9.176;2023-12-04T04:53:44;96671.25;;;-6.50;100.00
80405;BME280;69733;48.744;9.176;2023-12-04T04:56:10;96675.50;;;-6.49;100.00
80405;BME280;69733;48.744;9.176;2023-12-04T04:58:35;96667.75;;;-6.49;100.00
80405;BME280;69733;48.744;9.176;2023-12-04T05:01:04;96664.06;;;-6.46;100.00
80405;BME280;69733;48.744;9.176;2023-12-04T05:03:29;96660.53;;;-6.45;100.00
80405;BME280;69733;48.744;9.176;2023-12-04T05:05:54;96665.47;;;-6.42;100.00
80405;BME280;69733;48.744;9.176;2023-12-04T05:08:20;96656.75;;;-6.41;100.00
80405;BME280;69733;48.744;9.176;2023-12-04T05:10:48;96650.50;;;-6.39;100.00
80405;BME280;69733;48.744;9.176;2023-12-04T05:13:13;96649.56;;;-6.38;100.00
80405;BME280;69733;48.744;9.176;2023-12-04T05:15:39;96638.13;;;-6.35;100.00
80405;BME280;69733;48.744;9.176;2023-12-04T05:18:04;96632.81;;;-6.34;100.00
80405;BME280;69733;48.744;9.176;2023-12-04T05:20:29;96635.28;;;-6.32;100.00
80405;BME280;69733;48.744;9.176;2023-12-04T05:22:56;96629.84;;;-6.29;100.00
80405;BME280;69733;48.744;9.176;2023-12-04T05:25:22;96624.66;;;-6.29;100.00
80405;BME280;69733;48.744;9.176;2023-12-04T05:27:47;96625.38;;;-6.27;100.00
80405;BME280;69733;48.744;9.176;2023-12-04T05:30:12;96615.00;;;-6.27;100.00
80405;BME280;69733;48.744;9.176;2023-12-04T05:32:38;96609.69;;;-6.26;100.00
80405;BME280;69733;48.744;9.176;2023-12-04T05:35:03;96606.16;;;-6.25;100.00
80405;BME280;69733;48.744;9.176;2023-12-04T05:37:29;96598.41;;;-6.25;100.00
80405;BME280;69733;48.744;9.176;2023-12-04T05:39:57;96596.91;;;-6.27;100.00
80405;BME280;69733;48.744;9.176;2023-12-04T05:42:23;96593.34;;;-6.26;100.00
80405;BME280;69733;48.744;9.176;2023-12-04T05:44:48;96606.16;;;-6.25;100.00
80405;BME280;69733;48.744;9.176;2023-12-04T05:47:13;96592.28;;;-6.24;100.00
80405;BME280;69733;48.744;9.176;2023-12-04T05:49:39;96591.47;;;-6.24;100.00
80405;BME280;69733;48.744;9.176;2023-12-04T05:52:05;96596.38;;;-6.21;100.00
80405;BME280;69733;48.744;9.176;2023-12-04T05:54:30;96585.19;;;-6.22;100.00
80405;BME280;69733;48.744;9.176;2023-12-04T05:56:56;96590.38;;;-6.22;100.00
80405;BME280;69733;48.744;9.176;2023-12-04T05:59:21;96586.84;;;-6.21;100.00
80405;BME280;69733;48.744;9.176;2023-12-04T06:01:46;96587.66;;;-6.20;100.00
80405;BME280;69733;48.744;9.176;2023-12-04T06:04:11;96588.47;;;-6.20;100.00
80405;BME280;69733;48.744;9.176;2023-12-04T06:06:37;96590.25;;;-6.20;100.00
80405;BME280;69733;48.744;9.176;2023-12-04T06:09:02;96590.94;;;-6.18;100.00
80405;BME280;69733;48.744;9.176;2023-12-04T06:11:27;96599.38;;;-6.16;100.00
80405;BME280;69733;48.744;9.176;2023-12-04T06:13:53;96604.44;;;-6.15;100.00
80405;BME280;69733;48.744;9.176;2023-12-04T06:16:18;96600.06;;;-6.14;100.00
80405;BME280;69733;48.744;9.176;2023-12-04T06:18:43;96599.13;;;-6.13;100.00
80405;BME280;69733;48.744;9.176;2023-12-04T06:21:09;96599.38;;;-6.16;100.00
80405;BME280;69733;48.744;9.176;2023-12-04T06:23:34;96594.19;;;-6.16;100.00
80405;BME280;69733;48.744;9.176;2023-12-04T06:26:00;96588.22;;;-6.17;100.00
80405;BME280;69733;48.744;9.176;2023-12-04T06:28:26;96584.66;;;-6.16;100.00
80405;BME280;69733;48.744;9.176;2023-12-04T06:30:51;96588.06;;;-6.15;100.00
80405;BME280;69733;48.744;9.176;2023-12-04T06:33:17;96585.47;;;-6.15;100.00
80405;BME280;69733;48.744;9.176;2023-12-04T06:35:44;96585.47;;;-6.15;100.00
80405;BME280;69733;48.744;9.176;2023-12-04T06:38:14;96579.22;;;-6.13;100.00
80405;BME280;69733;48.744;9.176;2023-12-04T06:40:40;96569.00;;;-6.14;100.00
80405;BME280;69733;48.744;9.176;2023-12-04T06:43:06;96573.25;;;-6.13;100.00
80405;BME280;69733;48.744;9.176;2023-12-04T06:45:34;96573.25;;;-6.13;100.00
80405;BME280;69733;48.744;9.176;2023-12-04T06:48:00;96567.81;;;-6.10;100.00
80405;BME280;69733;48.744;9.176;2023-12-04T06:50:26;96559.88;;;-6.09;100.00
80405;BME280;69733;48.744;9.176;2023-12-04T06:52:51;96551.19;;;-6.08;100.00
80405;BME280;69733;48.744;9.176;2023-12-04T06:55:17;96549.25;;;-6.06;100.00
80405;BME280;69733;48.744;9.176;2023-12-04T06:57:42;96562.09;;;-6.04;100.00
80405;BME280;69733;48.744;9.176;2023-12-04T07:00:08;96563.47;;;-6.00;100.00
80405;BME280;69733;48.744;9.176;2023-12-04T07:02:37;96560.72;;;-5.98;100.00
80405;BME280;69733;48.744;9.176;2023-12-04T07:05:03;96562.94;;;-5.94;100.00
80405;BME280;69733;48.744;9.176;2023-12-04T07:07:29;96554.06;;;-5.91;100.00
80405;BME280;69733;48.744;9.176;2023-12-04T07:09:54;96563.22;;;-5.87;100.00
80405;BME280;69733;48.744;9.176;2023-12-04T07:12:19;96562.13;;;-5.85;100.00
80405;BME280;69733;48.744;9.176;2023-12-04T07:14:45;96551.31;;;-5.80;100.00
80405;BME280;69733;48.744;9.176;2023-12-04T07:17:10;96544.09;;;-5.77;100.00
80405;BME280;69733;48.744;9.176;2023-12-04T07:19:36;96543.84;;;-5.74;100.00
80405;BME280;69733;48.744;9.176;2023-12-04T07:22:02;96533.47;;;-5.74;100.00
80405;BME280;69733;48.744;9.176;2023-12-04T07:24:27;96530.66;;;-5.71;100.00
80405;BME280;69733;48.744;9.176;2023-12-04T07:26:52;96536.38;;;-5.67;100.00
80405;BME280;69733;48.744;9.176;2023-12-04T07:29:17;96537.59;;;-5.62;100.00
80405;BME280;69733;48.744;9.176;2023-12-04T07:31:43;96536.22;;;-5.56;100.00
80405;BME280;69733;48.744;9.176;2023-12-04T07:34:09;96539.22;;;-5.51;100.00
80405;BME280;69733;48.744;9.176;2023-12-04T07:36:34;96533.66;;;-5.46;100.00
80405;BME280;69733;48.744;9.176;2023-12-04T07:39:02;96528.59;;;-5.48;100.00
80405;BME280;69733;48.744;9.176;2023-12-04T07:41:31;96520.81;;;-5.48;100.00
80405;BME280;69733;48.744;9.176;2023-12-04T07:43:56;96522.47;;;-5.47;100.00
80405;BME280;69733;48.744;9.176;2023-12-04T07:46:21;96530.63;;;-5.42;100.00
80405;BME280;69733;48.744;9.176;2023-12-04T07:48:47;96526.81;;;-5.38;100.00
80405;BME280;69733;48.744;9.176;2023-12-04T07:51:12;96528.72;;;-5.30;100.00
80405;BME280;69733;48.744;9.176;2023-12-04T07:53:38;96522.31;;;-5.26;100.00
80405;BME280;69733;48.744;9.176;2023-12-04T07:56:03;96522.84;;;-5.23;100.00
80405;BME280;69733;48.744;9.176;2023-12-04T07:58:30;96516.84;;;-5.23;100.00
80405;BME280;69733;48.744;9.176;2023-12-04T08:00:55;96516.03;;;-5.24;100.00
80405;BME280;69733;48.744;9.176;2023-12-04T08:03:21;96512.06;;;-5.18;100.00
80405;BME280;69733;48.744;9.176;2023-12-04T08:05:46;96514.38;;;-5.15;100.00
80405;BME280;69733;48.744;9.176;2023-12-04T08:08:12;96537.03;;;-5.08;100.00
80405;BME280;69733;48.744;9.176;2023-12-04T08:10:37;96535.38;;;-4.99;100.00
80405;BME280;69733;48.744;9.176;2023-12-04T08:13:03;96529.66;;;-4.93;100.00
80405;BME280;69733;48.744;9.176;2023-12-04T08:15:28;96518.81;;;-4.88;100.00
80405;BME280;69733;48.744;9.176;2023-12-04T08:17:53;96508.31;;;-4.87;100.00
80405;BME280;69733;48.744;9.176;2023-12-04T08:20:20;96517.31;;;-4.81;100.00
80405;BME280;69733;48.744;9.176;2023-12-04T08:22:47;96517.44;;;-4.73;100.00
80405;BME280;69733;48.744;9.176;2023-12-04T08:25:13;96520.72;;;-4.71;100.00
80405;BME280;69733;48.744;9.176;2023-12-04T08:27:38;96499.56;;;-4.76;100.00
80405;BME280;69733;48.744;9.176;2023-12-04T08:30:04;96489.19;;;-4.76;100.00
80405;BME280;69733;48.744;9.176;2023-12-04T08:32:30;96484.22;;;-4.70;100.00
80405;BME280;69733;48.744;9.176;2023-12-04T08:34:55;96484.22;;;-4.70;100.00
80405;BME280;69733;48.744;9.176;2023-12-04T08:37:21;96479.44;;;-4.65;100.00
80405;BME280;69733;48.744;9.176;2023-12-04T08:39:46;96477.22;;;-4.60;100.00
80405;BME280;69733;48.744;9.176;2023-12-04T08:42:12;96485.53;;;-4.56;100.00
80405;BME280;69733;48.744;9.176;2023-12-04T08:44:38;96473.91;;;-4.52;100.00
80405;BME280;69733;48.744;9.176;2023-12-04T08:47:04;96477.56;;;-4.45;100.00
80405;BME280;69733;48.744;9.176;2023-12-04T08:49:30;96484.22;;;-4.33;100.00
80405;BME280;69733;48.744;9.176;2023-12-04T08:51:55;96492.59;;;-4.21;99.56
80405;BME280;69733;48.744;9.176;2023-12-04T08:54:20;96488.63;;;-4.16;99.28
80405;BME280;69733;48.744;9.176;2023-12-04T08:56:46;96484.31;;;-4.07;99.72
80405;BME280;69733;48.744;9.176;2023-12-04T08:59:11;96484.72;;;-4.02;99.29
80405;BME280;69733;48.744;9.176;2023-12-04T09:01:38;96480.88;;;-3.98;99.20
80405;BME280;69733;48.744;9.176;2023-12-04T09:04:04;96492.59;;;-3.94;99.25
80405;BME280;69733;48.744;9.176;2023-12-04T09:06:29;96491.06;;;-3.87;98.88
80405;BME280;69733;48.744;9.176;2023-12-04T09:08:54;96491.59;;;-3.83;99.29
80405;BME280;69733;48.744;9.176;2023-12-04T09:11:20;96491.72;;;-3.85;99.33
80405;BME280;69733;48.744;9.176;2023-12-04T09:13:45;96484.59;;;-3.83;99.44
80405;BME280;69733;48.744;9.176;2023-12-04T09:16:10;96490.47;;;-3.81;99.30
80405;BME280;69733;48.744;9.176;2023-12-04T09:18:36;96480.88;;;-3.80;99.85
80405;BME280;69733;48.744;9.176;2023-12-04T09:21:01;96491.94;;;-3.78;100.00
80405;BME280;69733;48.744;9.176;2023-12-04T09:23:27;96480.69;;;-3.69;99.42
80405;BME280;69733;48.744;9.176;2023-12-04T09:25:52;96489.50;;;-3.62;99.43
80405;BME280;69733;48.744;9.176;2023-12-04T09:28:17;96480.28;;;-3.57;99.37
80405;BME280;69733;48.744;9.176;2023-12-04T09:30:43;96489.50;;;-3.44;98.93
80405;BME280;69733;48.744;9.176;2023-12-04T09:33:08;96485.03;;;-3.34;98.29
80405;BME280;69733;48.744;9.176;2023-12-04T09:35:33;96479.59;;;-3.23;98.50
80405;BME280;69733;48.744;9.176;2023-12-04T09:37:59;96477.22;;;-3.17;97.80
80405;BME280;69733;48.744;9.176;2023-12-04T09:40:25;96480.66;;;-3.08;98.12
80405;BME280;69733;48.744;9.176;2023-12-04T09:42:51;96482.50;;;-3.01;97.43
80405;BME280;69733;48.744;9.176;2023-12-04T09:45:18;96480.09;;;-3.02;97.49
80405;BME280;69733;48.744;9.176;2023-12-04T09:47:44;96482.06;;;-2.96;97.56
80405;BME280;69733;48.744;9.176;2023-12-04T09:50:10;96483.03;;;-2.97;98.22
80405;BME280;69733;48.744;9.176;2023-12-04T09:52:36;96484.66;;;-2.96;98.00
80405;BME280;69733;48.744;9.176;2023-12-04T09:55:02;96478.50;;;-2.95;98.61
80405;BME280;69733;48.744;9.176;2023-12-04T09:57:28;96478.34;;;-2.93;98.57
80405;BME280;69733;48.744;9.176;2023-12-04T09:59:54;96497.06;;;-2.90;98.14
80405;BME280;69733;48.744;9.176;2023-12-04T10:02:20;96486.50;;;-2.88;98.49
80405;BME280;69733;48.744;9.176;2023-12-04T10:04:46;96470.72;;;-2.87;98.31
80405;BME280;69733;48.744;9.176;2023-12-04T10:07:12;96464.25;;;-2.83;98.31
80405;BME280;69733;48.744;9.176;2023-12-04T10:09:37;96478.44;;;-2.77;98.01
80405;BME280;69733;48.744;9.176;2023-12-04T10:12:03;96480.56;;;-2.73;98.23
80405;BME280;69733;48.744;9.176;2023-12-04T10:14:28;96462.25;;;-2.63;97.68
80405;BME280;69733;48.744;9.176;2023-12-04T10:16:55;96455.13;;;-2.53;97.27
80405;BME280;69733;48.744;9.176;2023-12-04T10:19:28;96451.44;;;-2.42;97.18
80405;BME280;69733;48.744;9.176;2023-12-04T10:21:56;96477.66;;;-2.36;96.98
80405;BME280;69733;48.744;9.176;2023-12-04T10:24:32;96462.22;;;-2.29;97.13
80405;BME280;69733;48.744;9.176;2023-12-04T10:26:58;96460.44;;;-2.29;97.05
80405;BME280;69733;48.744;9.176;2023-12-04T10:29:26;96451.19;;;-2.23;97.13
80405;BME280;69733;48.744;9.176;2023-12-04T10:31:52;96443.22;;;-2.22;97.58
80405;BME280;69733;48.744;9.176;2023-12-04T10:34:20;96445.16;;;-2.16;97.57
80405;BME280;69733;48.744;9.176;2023-12-04T10:36:46;96438.53;;;-2.10;97.48
80405;BME280;69733;48.744;9.176;2023-12-04T10:39:12;96430.88;;;-2.04;96.95
80405;BME280;69733;48.744;9.176;2023-12-04T10:41:40;96438.41;;;-1.92;96.57
80405;BME280;69733;48.744;9.176;2023-12-04T10:44:05;96416.09;;;-1.87;96.71
80405;BME280;69733;48.744;9.176;2023-12-04T10:46:32;96407.81;;;-1.74;96.49
80405;BME280;69733;48.744;9.176;2023-12-04T10:48:59;96401.94;;;-1.60;96.01
80405;BME280;69733;48.744;9.176;2023-12-04T10:51:25;96400.81;;;-1.49;95.77
80405;BME280;69733;48.744;9.176;2023-12-04T10:53:51;96395.56;;;-1.41;95.55
80405;BME280;69733;48.744;9.176;2023-12-04T10:56:30;96392.94;;;-1.33;95.33
80405;BME280;69733;48.744;9.176;2023-12-04T10:58:57;96389.38;;;-1.24;95.34
80405;BME280;69733;48.744;9.176;2023-12-04T11:01:25;96377.28;;;-1.17;95.23
80405;BME280;69733;48.744;9.176;2023-12-04T11:03:56;96361.78;;;-1.11;95.45
80405;BME280;69733;48.744;9.176;2023-12-04T11:06:24;96358.47;;;-0.96;94.97
80405;BME280;69733;48.744;9.176;2023-12-04T11:08:52;96354.97;;;-0.81;94.76
80405;BME280;69733;48.744;9.176;2023-12-04T11:11:27;96366.69;;;-0.69;94.15
80405;BME280;69733;48.744;9.176;2023-12-04T11:13:59;96364.06;;;-0.61;94.32
80405;BME280;69733;48.744;9.176;2023-12-04T11:16:45;96354.41;;;-0.60;94.27
80405;BME280;69733;48.744;9.176;2023-12-04T11:22:07;96364.34;;;-0.56;95.03
80405;BME280;69733;48.744;9.176;2023-12-04T11:24:33;96354.25;;;-0.59;95.38
80405;BME280;69733;48.744;9.176;2023-12-04T11:27:00;96350.34;;;-0.63;95.28
80405;BME280;69733;48.744;9.176;2023-12-04T11:29:27;96347.91;;;-0.64;96.10
80405;BME280;69733;48.744;9.176;2023-12-04T11:31:54;96348.75;;;-0.72;96.84
80405;BME280;69733;48.744;9.176;2023-12-04T11:34:19;96350.38;;;-0.71;96.85
80405;BME280;69733;48.744;9.176;2023-12-04T11:36:45;96347.44;;;-0.68;96.52
80405;BME280;69733;48.744;9.176;2023-12-04T11:39:10;96342.84;;;-0.66;96.37
80405;BME280;69733;48.744;9.176;2023-12-04T11:41:36;96330.59;;;-0.65;96.96
80405;BME280;69733;48.744;9.176;2023-12-04T11:44:02;96334.63;;;-0.55;96.59
80405;BME280;69733;48.744;9.176;2023-12-04T11:46:29;96333.44;;;-0.44;96.11
80405;BME280;69733;48.744;9.176;2023-12-04T11:51:50;96293.31;;;-0.28;95.73
80405;BME280;69733;48.744;9.176;2023-12-04T11:54:18;96274.03;;;-0.27;95.89
80405;BME280;69733;48.744;9.176;2023-12-04T11:57:19;96271.94;;;-0.32;96.22
80405;BME280;69733;48.744;9.176;2023-12-04T11:59:46;96257.06;;;-0.31;96.38
80405;BME280;69733;48.744;9.176;2023-12-04T12:02:13;96246.97;;;-0.34;97.11
80405;BME280;69733;48.744;9.176;2023-12-04T12:04:38;96233.56;;;-0.31;97.18
80405;BME280;69733;48.744;9.176;2023-12-04T12:07:07;96227.81;;;-0.27;96.77
80405;BME280;69733;48.744;9.176;2023-12-04T12:09:33;96231.69;;;-0.23;96.35
80405;BME280;69733;48.744;9.176;2023-12-04T12:12:01;96228.56;;;-0.18;96.68
80405;BME280;69733;48.744;9.176;2023-12-04T12:14:26;96233.34;;;-0.07;96.21
80405;BME280;69733;48.744;9.176;2023-12-04T12:16:54;96229.22;;;-0.02;96.25
80405;BME280;69733;48.744;9.176;2023-12-04T12:19:20;96228.63;;;0.11;95.95
80405;BME280;69733;48.744;9.176;2023-12-04T12:21:49;96228.63;;;0.11;95.87
80405;BME280;69733;48.744;9.176;2023-12-04T12:24:17;96221.69;;;0.18;95.92
80405;BME280;69733;48.744;9.176;2023-12-04T12:26:42;96210.53;;;0.24;95.65
80405;BME280;69733;48.744;9.176;2023-12-04T12:29:08;96201.50;;;0.27;95.80
80405;BME280;69733;48.744;9.176;2023-12-04T12:31:34;96195.19;;;0.21;96.35
80405;BME280;69733;48.744;9.176;2023-12-04T12:34:00;96194.03;;;0.24;96.62
80405;BME280;69733;48.744;9.176;2023-12-04T12:36:25;96195.81;;;0.23;96.74
80405;BME280;69733;48.744;9.176;2023-12-04T12:38:50;96199.78;;;0.19;97.26
80405;BME280;69733;48.744;9.176;2023-12-04T12:41:16;96202.13;;;0.14;97.23
80405;BME280;69733;48.744;9.176;2023-12-04T12:43:42;96199.69;;;0.13;97.65
80405;BME280;69733;48.744;9.176;2023-12-04T12:46:08;96194.38;;;0.06;98.14
80405;BME280;69733;48.744;9.176;2023-12-04T12:48:34;96199.66;;;-0.02;98.99
80405;BME280;69733;48.744;9.176;2023-12-04T12:51:02;96204.94;;;-0.10;99.43
80405;BME280;69733;48.744;9.176;2023-12-04T12:53:27;96190.16;;;-0.18;100.00